Terminal Aerodrome Forecast
Issued by NWS Cleveland, OH

Home | Current Version | Previous Version | Text Only | Print | Product List | Glossary On
Versions: 1 2 3 4 5 6 7 8 9 10 11 12 13
024
FTUS41 KCLE 231138
TAFERI
TAF
KERI 231138Z 2312/2412 00000KT 6SM BR OVC008
      TEMPO 2312/2314 SCT008 BKN015
     FM231400 VRB04KT P6SM SCT015 BKN020
     FM231700 32006KT P6SM VCTS SCT025CB BKN040
     FM232100 30007KT P6SM SCT025 BKN080 PROB30 2401/2405 5SM -TSRA
      BKN025CB=

USA.gov is the U.S. government's official web portal to all federal, state and local government web resources and services.